sensor_id;sensor_type;location;lat;lon;timestamp;temperature;humidity
67273;DHT22;54190;49.770;9.250;2023-04-19T00:00:45;9.30;99.90
67273;DHT22;54190;49.770;9.250;2023-04-19T00:03:11;9.30;99.90
67273;DHT22;54190;49.770;9.250;2023-04-19T00:05:36;9.30;99.90
67273;DHT22;54190;49.770;9.250;2023-04-19T00:08:05;9.30;99.90
67273;DHT22;54190;49.770;9.250;2023-04-19T00:10:32;9.30;99.90
67273;DHT22;54190;49.770;9.250;2023-04-19T00:12:58;9.30;99.90
67273;DHT22;54190;49.770;9.250;2023-04-19T00:15:24;9.30;99.90
67273;DHT22;54190;49.770;9.250;2023-04-19T00:17:49;9.30;99.90
67273;DHT22;54190;49.770;9.250;2023-04-19T00:20:15;9.30;99.90
67273;DHT22;54190;49.770;9.250;2023-04-19T00:22:41;9.30;99.90
67273;DHT22;54190;49.770;9.250;2023-04-19T00:25:07;9.30;99.90
67273;DHT22;54190;49.770;9.250;2023-04-19T00:27:32;9.20;99.90
67273;DHT22;54190;49.770;9.250;2023-04-19T00:29:58;9.20;99.90
67273;DHT22;54190;49.770;9.250;2023-04-19T00:32:24;9.20;99.90
67273;DHT22;54190;49.770;9.250;2023-04-19T00:34:49;9.20;99.90
67273;DHT22;54190;49.770;9.250;2023-04-19T00:37:15;9.20;99.90
67273;DHT22;54190;49.770;9.250;2023-04-19T00:39:41;9.20;99.90
67273;DHT22;54190;49.770;9.250;2023-04-19T00:42:07;9.20;99.90
67273;DHT22;54190;49.770;9.250;2023-04-19T00:44:32;9.20;99.90
67273;DHT22;54190;49.770;9.250;2023-04-19T00:46:59;9.20;99.90
67273;DHT22;54190;49.770;9.250;2023-04-19T00:49:26;9.20;99.90
67273;DHT22;54190;49.770;9.250;2023-04-19T00:51:52;9.20;99.90
67273;DHT22;54190;49.770;9.250;2023-04-19T00:54:18;9.20;99.90
67273;DHT22;54190;49.770;9.250;2023-04-19T00:56:45;9.10;99.90
67273;DHT22;54190;49.770;9.250;2023-04-19T00:59:11;9.20;99.90
67273;DHT22;54190;49.770;9.250;2023-04-19T01:01:38;9.10;99.90
67273;DHT22;54190;49.770;9.250;2023-04-19T01:04:04;9.20;99.90
67273;DHT22;54190;49.770;9.250;2023-04-19T01:06:31;9.20;99.90
67273;DHT22;54190;49.770;9.250;2023-04-19T01:08:57;9.10;99.90
67273;DHT22;54190;49.770;9.250;2023-04-19T01:11:23;9.10;99.90
67273;DHT22;54190;49.770;9.250;2023-04-19T01:13:49;9.10;99.90
67273;DHT22;54190;49.770;9.250;2023-04-19T01:16:17;9.00;99.90
67273;DHT22;54190;49.770;9.250;2023-04-19T01:18:43;9.00;99.90
67273;DHT22;54190;49.770;9.250;2023-04-19T01:21:09;9.00;99.90
67273;DHT22;54190;49.770;9.250;2023-04-19T01:23:35;9.00;99.90
67273;DHT22;54190;49.770;9.250;2023-04-19T01:26:01;8.90;99.90
67273;DHT22;54190;49.770;9.250;2023-04-19T01:28:27;9.00;99.90
67273;DHT22;54190;49.770;9.250;2023-04-19T01:30:53;8.90;99.90
67273;DHT22;54190;49.770;9.250;2023-04-19T01:33:22;9.00;99.90
67273;DHT22;54190;49.770;9.250;2023-04-19T01:35:48;9.00;99.90
67273;DHT22;54190;49.770;9.250;2023-04-19T01:38:15;9.10;99.90
67273;DHT22;54190;49.770;9.250;2023-04-19T01:40:41;9.10;99.90
67273;DHT22;54190;49.770;9.250;2023-04-19T01:43:07;9.10;99.90
67273;DHT22;54190;49.770;9.250;2023-04-19T01:45:33;9.10;99.90
67273;DHT22;54190;49.770;9.250;2023-04-19T01:48:01;9.00;99.90
67273;DHT22;54190;49.770;9.250;2023-04-19T01:50:30;9.00;99.90
67273;DHT22;54190;49.770;9.250;2023-04-19T01:52:56;9.00;99.90
67273;DHT22;54190;49.770;9.250;2023-04-19T01:55:22;9.00;99.90
67273;DHT22;54190;49.770;9.250;2023-04-19T01:57:48;9.00;99.90
67273;DHT22;54190;49.770;9.250;2023-04-19T02:00:14;9.00;99.90
67273;DHT22;54190;49.770;9.250;2023-04-19T02:02:40;9.00;99.90
67273;DHT22;54190;49.770;9.250;2023-04-19T02:05:07;9.00;99.90
67273;DHT22;54190;49.770;9.250;2023-04-19T02:07:33;9.00;99.90
67273;DHT22;54190;49.770;9.250;2023-04-19T02:09:59;9.00;99.90
67273;DHT22;54190;49.770;9.250;2023-04-19T02:12:28;9.10;99.90
67273;DHT22;54190;49.770;9.250;2023-04-19T02:14:56;9.10;99.90
67273;DHT22;54190;49.770;9.250;2023-04-19T02:17:29;9.10;99.90
67273;DHT22;54190;49.770;9.250;2023-04-19T02:19:55;9.10;99.90
67273;DHT22;54190;49.770;9.250;2023-04-19T02:22:21;9.10;99.90
67273;DHT22;54190;49.770;9.250;2023-04-19T02:24:49;9.10;99.90
67273;DHT22;54190;49.770;9.250;2023-04-19T02:27:16;9.10;99.90
67273;DHT22;54190;49.770;9.250;2023-04-19T02:29:41;9.10;99.90
67273;DHT22;54190;49.770;9.250;2023-04-19T02:32:07;9.10;99.90
67273;DHT22;54190;49.770;9.250;2023-04-19T02:34:33;9.10;99.90
67273;DHT22;54190;49.770;9.250;2023-04-19T02:36:59;9.10;99.90
67273;DHT22;54190;49.770;9.250;2023-04-19T02:39:27;9.10;99.90
67273;DHT22;54190;49.770;9.250;2023-04-19T02:41:54;9.10;99.90
67273;DHT22;54190;49.770;9.250;2023-04-19T02:44:20;9.10;99.90
67273;DHT22;54190;49.770;9.250;2023-04-19T02:46:53;9.10;99.90
67273;DHT22;54190;49.770;9.250;2023-04-19T02:49:19;9.10;99.90
67273;DHT22;54190;49.770;9.250;2023-04-19T02:51:46;9.10;99.90
67273;DHT22;54190;49.770;9.250;2023-04-19T02:54:13;9.10;99.90
67273;DHT22;54190;49.770;9.250;2023-04-19T02:56:40;9.10;99.90
67273;DHT22;54190;49.770;9.250;2023-04-19T02:59:05;9.10;99.90
67273;DHT22;54190;49.770;9.250;2023-04-19T03:01:32;9.10;99.90
67273;DHT22;54190;49.770;9.250;2023-04-19T03:04:00;9.10;99.90
67273;DHT22;54190;49.770;9.250;2023-04-19T03:06:26;9.10;99.90
67273;DHT22;54190;49.770;9.250;2023-04-19T03:08:51;9.10;99.90
67273;DHT22;54190;49.770;9.250;2023-04-19T03:11:18;9.10;99.90
67273;DHT22;54190;49.770;9.250;2023-04-19T03:13:45;9.10;99.90
67273;DHT22;54190;49.770;9.250;2023-04-19T03:16:12;9.10;99.90
67273;DHT22;54190;49.770;9.250;2023-04-19T03:18:38;9.20;99.90
67273;DHT22;54190;49.770;9.250;2023-04-19T03:21:04;9.20;99.90
67273;DHT22;54190;49.770;9.250;2023-04-19T03:23:41;9.20;99.90
67273;DHT22;54190;49.770;9.250;2023-04-19T03:26:08;9.10;99.90
67273;DHT22;54190;49.770;9.250;2023-04-19T03:28:40;9.10;99.90
67273;DHT22;54190;49.770;9.250;2023-04-19T03:31:32;9.20;99.90
67273;DHT22;54190;49.770;9.250;2023-04-19T03:33:58;9.20;99.90
67273;DHT22;54190;49.770;9.250;2023-04-19T03:36:29;9.20;99.90
67273;DHT22;54190;49.770;9.250;2023-04-19T03:38:55;9.10;99.90
67273;DHT22;54190;49.770;9.250;2023-04-19T03:41:23;9.00;99.90
67273;DHT22;54190;49.770;9.250;2023-04-19T03:43:58;9.00;99.90
67273;DHT22;54190;49.770;9.250;2023-04-19T03:46:24;9.00;99.90
67273;DHT22;54190;49.770;9.250;2023-04-19T03:48:50;9.00;99.90
67273;DHT22;54190;49.770;9.250;2023-04-19T03:51:18;9.10;99.90
67273;DHT22;54190;49.770;9.250;2023-04-19T03:53:43;9.10;99.90
67273;DHT22;54190;49.770;9.250;2023-04-19T03:56:09;9.10;99.90
67273;DHT22;54190;49.770;9.250;2023-04-19T03:58:35;9.10;99.90
67273;DHT22;54190;49.770;9.250;2023-04-19T04:01:05;9.10;99.90
67273;DHT22;54190;49.770;9.250;2023-04-19T04:03:33;9.00;99.90
67273;DHT22;54190;49.770;9.250;2023-04-19T04:06:01;9.00;99.90
67273;DHT22;54190;49.770;9.250;2023-04-19T04:08:26;9.00;99.90
67273;DHT22;54190;49.770;9.250;2023-04-19T04:10:53;9.00;99.90
67273;DHT22;54190;49.770;9.250;2023-04-19T04:13:20;9.00;99.90
67273;DHT22;54190;49.770;9.250;2023-04-19T04:15:51;9.00;99.90
67273;DHT22;54190;49.770;9.250;2023-04-19T04:18:17;9.00;99.90
67273;DHT22;54190;49.770;9.250;2023-04-19T04:20:43;8.90;99.90
67273;DHT22;54190;49.770;9.250;2023-04-19T04:23:10;8.90;99.90
67273;DHT22;54190;49.770;9.250;2023-04-19T04:25:39;8.90;99.90
67273;DHT22;54190;49.770;9.250;2023-04-19T04:28:09;8.90;99.90
67273;DHT22;54190;49.770;9.250;2023-04-19T04:30:38;8.90;99.90
67273;DHT22;54190;49.770;9.250;2023-04-19T04:33:06;8.90;99.90
67273;DHT22;54190;49.770;9.250;2023-04-19T04:35:33;8.80;99.90
67273;DHT22;54190;49.770;9.250;2023-04-19T04:38:06;8.60;99.90
67273;DHT22;54190;49.770;9.250;2023-04-19T04:40:32;8.60;99.90
67273;DHT22;54190;49.770;9.250;2023-04-19T04:42:58;8.60;99.90
67273;DHT22;54190;49.770;9.250;2023-04-19T04:45:26;8.60;99.90
67273;DHT22;54190;49.770;9.250;2023-04-19T04:47:54;8.60;99.90
67273;DHT22;54190;49.770;9.250;2023-04-19T04:50:20;8.70;99.90
67273;DHT22;54190;49.770;9.250;2023-04-19T04:52:47;8.80;99.90
67273;DHT22;54190;49.770;9.250;2023-04-19T04:55:25;8.80;99.90
67273;DHT22;54190;49.770;9.250;2023-04-19T04:57:52;8.90;99.90
67273;DHT22;54190;49.770;9.250;2023-04-19T05:00:27;8.90;99.90
67273;DHT22;54190;49.770;9.250;2023-04-19T05:02:59;8.90;99.90
67273;DHT22;54190;49.770;9.250;2023-04-19T05:05:28;9.00;99.90
67273;DHT22;54190;49.770;9.250;2023-04-19T05:07:54;9.00;99.90
67273;DHT22;54190;49.770;9.250;2023-04-19T05:10:20;9.00;99.90
67273;DHT22;54190;49.770;9.250;2023-04-19T05:12:46;9.00;99.90
67273;DHT22;54190;49.770;9.250;2023-04-19T05:15:12;9.00;99.90
67273;DHT22;54190;49.770;9.250;2023-04-19T05:17:42;9.10;99.90
67273;DHT22;54190;49.770;9.250;2023-04-19T05:20:08;9.10;99.90
67273;DHT22;54190;49.770;9.250;2023-04-19T05:22:35;9.10;99.90
67273;DHT22;54190;49.770;9.250;2023-04-19T05:25:02;9.10;99.90
67273;DHT22;54190;49.770;9.250;2023-04-19T05:27:28;9.20;99.90
67273;DHT22;54190;49.770;9.250;2023-04-19T05:29:53;9.20;99.90
67273;DHT22;54190;49.770;9.250;2023-04-19T05:32:20;9.20;99.90
67273;DHT22;54190;49.770;9.250;2023-04-19T05:34:53;9.20;99.90
67273;DHT22;54190;49.770;9.250;2023-04-19T05:37:21;9.20;99.90
67273;DHT22;54190;49.770;9.250;2023-04-19T05:39:48;9.30;99.90
67273;DHT22;54190;49.770;9.250;2023-04-19T05:42:14;9.30;99.90
67273;DHT22;54190;49.770;9.250;2023-04-19T05:44:40;9.30;99.90
67273;DHT22;54190;49.770;9.250;2023-04-19T05:47:06;9.30;99.90
67273;DHT22;54190;49.770;9.250;2023-04-19T05:49:51;9.20;99.90
67273;DHT22;54190;49.770;9.250;2023-04-19T05:52:30;9.10;99.90
67273;DHT22;54190;49.770;9.250;2023-04-19T05:54:58;9.10;99.90
67273;DHT22;54190;49.770;9.250;2023-04-19T05:57:24;9.10;99.90
67273;DHT22;54190;49.770;9.250;2023-04-19T05:59:50;9.10;99.90
67273;DHT22;54190;49.770;9.250;2023-04-19T06:02:20;9.10;99.90
67273;DHT22;54190;49.770;9.250;2023-04-19T06:04:45;9.10;99.90
67273;DHT22;54190;49.770;9.250;2023-04-19T06:07:12;9.10;99.90
67273;DHT22;54190;49.770;9.250;2023-04-19T06:09:38;9.10;99.90
67273;DHT22;54190;49.770;9.250;2023-04-19T06:12:05;9.10;99.90
67273;DHT22;54190;49.770;9.250;2023-04-19T06:14:31;9.10;99.90
67273;DHT22;54190;49.770;9.250;2023-04-19T06:16:57;9.10;99.90
67273;DHT22;54190;49.770;9.250;2023-04-19T06:19:22;9.20;99.90
67273;DHT22;54190;49.770;9.250;2023-04-19T06:21:48;9.20;99.90
67273;DHT22;54190;49.770;9.250;2023-04-19T06:24:14;9.20;99.90
67273;DHT22;54190;49.770;9.250;2023-04-19T06:26:40;9.20;99.90
67273;DHT22;54190;49.770;9.250;2023-04-19T06:29:05;9.20;99.90
67273;DHT22;54190;49.770;9.250;2023-04-19T06:31:32;9.20;99.90
67273;DHT22;54190;49.770;9.250;2023-04-19T06:33:57;9.20;99.90
67273;DHT22;54190;49.770;9.250;2023-04-19T06:36:23;9.30;99.90
67273;DHT22;54190;49.770;9.250;2023-04-19T06:38:49;9.30;99.90
67273;DHT22;54190;49.770;9.250;2023-04-19T06:41:14;9.30;99.90
67273;DHT22;54190;49.770;9.250;2023-04-19T06:43:40;9.30;99.90
67273;DHT22;54190;49.770;9.250;2023-04-19T06:46:07;9.40;99.90
67273;DHT22;54190;49.770;9.250;2023-04-19T06:48:33;9.40;99.90
67273;DHT22;54190;49.770;9.250;2023-04-19T06:50:59;9.40;99.90
67273;DHT22;54190;49.770;9.250;2023-04-19T06:53:25;9.40;99.90
67273;DHT22;54190;49.770;9.250;2023-04-19T06:55:58;9.40;99.90
67273;DHT22;54190;49.770;9.250;2023-04-19T06:58:26;9.40;99.90
67273;DHT22;54190;49.770;9.250;2023-04-19T07:00:51;9.40;99.90
67273;DHT22;54190;49.770;9.250;2023-04-19T07:03:17;9.40;99.90
67273;DHT22;54190;49.770;9.250;2023-04-19T07:05:43;9.50;99.90
67273;DHT22;54190;49.770;9.250;2023-04-19T07:08:09;9.50;99.90
67273;DHT22;54190;49.770;9.250;2023-04-19T07:10:34;9.50;99.90
67273;DHT22;54190;49.770;9.250;2023-04-19T07:13:00;9.60;99.90
67273;DHT22;54190;49.770;9.250;2023-04-19T07:15:26;9.60;99.90
67273;DHT22;54190;49.770;9.250;2023-04-19T07:17:51;9.70;99.90
67273;DHT22;54190;49.770;9.250;2023-04-19T07:20:17;9.80;99.90
67273;DHT22;54190;49.770;9.250;2023-04-19T07:22:43;9.90;99.90
67273;DHT22;54190;49.770;9.250;2023-04-19T07:25:10;10.00;99.90
67273;DHT22;54190;49.770;9.250;2023-04-19T07:27:35;10.00;99.90
67273;DHT22;54190;49.770;9.250;2023-04-19T07:30:01;10.10;99.90
67273;DHT22;54190;49.770;9.250;2023-04-19T07:32:27;10.10;99.90
67273;DHT22;54190;49.770;9.250;2023-04-19T07:34:52;10.10;99.90
67273;DHT22;54190;49.770;9.250;2023-04-19T07:37:18;10.20;99.90
67273;DHT22;54190;49.770;9.250;2023-04-19T07:39:44;10.20;99.90
67273;DHT22;54190;49.770;9.250;2023-04-19T07:42:10;10.20;99.90
67273;DHT22;54190;49.770;9.250;2023-04-19T07:44:36;10.30;99.90
67273;DHT22;54190;49.770;9.250;2023-04-19T07:47:03;10.30;99.90
67273;DHT22;54190;49.770;9.250;2023-04-19T07:49:30;10.40;99.90
67273;DHT22;54190;49.770;9.250;2023-04-19T07:51:59;10.40;99.90
67273;DHT22;54190;49.770;9.250;2023-04-19T07:54:26;10.30;99.90
67273;DHT22;54190;49.770;9.250;2023-04-19T07:56:51;10.40;99.90
67273;DHT22;54190;49.770;9.250;2023-04-19T07:59:17;10.40;99.90
67273;DHT22;54190;49.770;9.250;2023-04-19T08:01:43;10.30;99.90
67273;DHT22;54190;49.770;9.250;2023-04-19T08:04:08;10.40;99.90
67273;DHT22;54190;49.770;9.250;2023-04-19T08:06:36;10.40;99.90
67273;DHT22;54190;49.770;9.250;2023-04-19T08:09:02;10.40;99.90
67273;DHT22;54190;49.770;9.250;2023-04-19T08:11:28;10.40;99.90
67273;DHT22;54190;49.770;9.250;2023-04-19T08:13:54;10.40;99.90
67273;DHT22;54190;49.770;9.250;2023-04-19T08:16:20;10.40;99.90
67273;DHT22;54190;49.770;9.250;2023-04-19T08:18:45;10.30;99.90
67273;DHT22;54190;49.770;9.250;2023-04-19T08:21:12;10.30;99.90
67273;DHT22;54190;49.770;9.250;2023-04-19T08:23:38;10.30;99.90
67273;DHT22;54190;49.770;9.250;2023-04-19T08:26:04;10.40;99.90
67273;DHT22;54190;49.770;9.250;2023-04-19T08:28:30;10.40;99.90
67273;DHT22;54190;49.770;9.250;2023-04-19T08:30:57;10.40;99.90
67273;DHT22;54190;49.770;9.250;2023-04-19T08:33:23;10.40;99.90
67273;DHT22;54190;49.770;9.250;2023-04-19T08:35:48;10.40;99.90
67273;DHT22;54190;49.770;9.250;2023-04-19T08:38:14;10.50;99.90
67273;DHT22;54190;49.770;9.250;2023-04-19T08:40:50;10.50;99.90
67273;DHT22;54190;49.770;9.250;2023-04-19T08:43:16;10.50;99.90
67273;DHT22;54190;49.770;9.250;2023-04-19T08:45:45;10.50;99.90
67273;DHT22;54190;49.770;9.250;2023-04-19T08:48:14;10.60;99.90
67273;DHT22;54190;49.770;9.250;2023-04-19T08:50:41;10.60;99.90
67273;DHT22;54190;49.770;9.250;2023-04-19T08:53:08;10.60;99.90
67273;DHT22;54190;49.770;9.250;2023-04-19T08:55:36;10.60;99.90
67273;DHT22;54190;49.770;9.250;2023-04-19T08:58:03;10.50;99.90
67273;DHT22;54190;49.770;9.250;2023-04-19T09:00:31;10.50;99.90
67273;DHT22;54190;49.770;9.250;2023-04-19T09:02:57;10.50;99.90
67273;DHT22;54190;49.770;9.250;2023-04-19T09:05:23;10.50;99.90
67273;DHT22;54190;49.770;9.250;2023-04-19T09:07:49;10.50;99.90
67273;DHT22;54190;49.770;9.250;2023-04-19T09:10:19;10.50;99.90
67273;DHT22;54190;49.770;9.250;2023-04-19T09:13:03;10.50;99.90
67273;DHT22;54190;49.770;9.250;2023-04-19T09:15:39;10.40;99.90
67273;DHT22;54190;49.770;9.250;2023-04-19T09:18:07;10.50;99.90
67273;DHT22;54190;49.770;9.250;2023-04-19T09:20:42;10.50;99.90
67273;DHT22;54190;49.770;9.250;2023-04-19T09:23:11;10.60;99.90
67273;DHT22;54190;49.770;9.250;2023-04-19T09:25:50;10.70;99.90
67273;DHT22;54190;49.770;9.250;2023-04-19T09:28:15;10.80;99.90
67273;DHT22;54190;49.770;9.250;2023-04-19T09:30:41;10.90;99.90
67273;DHT22;54190;49.770;9.250;2023-04-19T09:33:07;10.90;99.90
67273;DHT22;54190;49.770;9.250;2023-04-19T09:35:43;11.00;99.90
67273;DHT22;54190;49.770;9.250;2023-04-19T09:38:10;11.10;99.90
67273;DHT22;54190;49.770;9.250;2023-04-19T09:40:38;11.10;99.90
67273;DHT22;54190;49.770;9.250;2023-04-19T09:43:04;11.00;99.90
67273;DHT22;54190;49.770;9.250;2023-04-19T09:45:40;11.00;99.90
67273;DHT22;54190;49.770;9.250;2023-04-19T09:48:07;11.10;99.90
67273;DHT22;54190;49.770;9.250;2023-04-19T09:50:33;11.10;99.90
67273;DHT22;54190;49.770;9.250;2023-04-19T09:52:59;11.20;99.90
67273;DHT22;54190;49.770;9.250;2023-04-19T09:55:26;11.30;99.90
67273;DHT22;54190;49.770;9.250;2023-04-19T09:57:52;11.40;99.90
67273;DHT22;54190;49.770;9.250;2023-04-19T10:00:19;11.40;99.90
67273;DHT22;54190;49.770;9.250;2023-04-19T10:02:46;11.40;99.90
67273;DHT22;54190;49.770;9.250;2023-04-19T10:05:23;11.50;99.90
67273;DHT22;54190;49.770;9.250;2023-04-19T10:07:50;11.50;99.90
67273;DHT22;54190;49.770;9.250;2023-04-19T10:10:17;11.60;99.90
67273;DHT22;54190;49.770;9.250;2023-04-19T10:12:48;11.70;99.90
67273;DHT22;54190;49.770;9.250;2023-04-19T10:15:14;11.90;99.90
67273;DHT22;54190;49.770;9.250;2023-04-19T10:17:40;12.00;99.90
67273;DHT22;54190;49.770;9.250;2023-04-19T10:20:09;12.10;99.90
67273;DHT22;54190;49.770;9.250;2023-04-19T10:22:37;12.10;99.90
67273;DHT22;54190;49.770;9.250;2023-04-19T10:25:14;12.00;99.90
67273;DHT22;54190;49.770;9.250;2023-04-19T10:27:41;12.00;99.90
67273;DHT22;54190;49.770;9.250;2023-04-19T10:30:23;12.10;99.90
67273;DHT22;54190;49.770;9.250;2023-04-19T10:38:11;12.20;99.90
67273;DHT22;54190;49.770;9.250;2023-04-19T10:40:57;12.50;99.90
67273;DHT22;54190;49.770;9.250;2023-04-19T10:43:27;12.80;99.90
67273;DHT22;54190;49.770;9.250;2023-04-19T10:45:53;13.00;99.90
67273;DHT22;54190;49.770;9.250;2023-04-19T10:56:08;13.50;99.90
67273;DHT22;54190;49.770;9.250;2023-04-19T11:04:04;13.40;99.90
67273;DHT22;54190;49.770;9.250;2023-04-19T11:06:31;13.20;99.50
67273;DHT22;54190;49.770;9.250;2023-04-19T11:08:56;13.00;98.20
67273;DHT22;54190;49.770;9.250;2023-04-19T11:11:22;12.80;98.60
67273;DHT22;54190;49.770;9.250;2023-04-19T11:13:50;12.70;99.90
67273;DHT22;54190;49.770;9.250;2023-04-19T11:16:16;12.70;97.70
67273;DHT22;54190;49.770;9.250;2023-04-19T11:18:43;12.60;97.80
67273;DHT22;54190;49.770;9.250;2023-04-19T11:21:12;12.60;96.50
67273;DHT22;54190;49.770;9.250;2023-04-19T11:23:39;12.60;98.30
67273;DHT22;54190;49.770;9.250;2023-04-19T11:26:09;12.90;96.00
67273;DHT22;54190;49.770;9.250;2023-04-19T11:28:35;13.20;95.90
67273;DHT22;54190;49.770;9.250;2023-04-19T11:31:00;13.40;94.80
67273;DHT22;54190;49.770;9.250;2023-04-19T11:33:35;13.60;93.50
67273;DHT22;54190;49.770;9.250;2023-04-19T11:36:02;13.90;96.20
67273;DHT22;54190;49.770;9.250;2023-04-19T11:38:29;13.90;90.00
67273;DHT22;54190;49.770;9.250;2023-04-19T11:41:02;13.90;91.20
67273;DHT22;54190;49.770;9.250;2023-04-19T11:43:33;13.90;90.60
67273;DHT22;54190;49.770;9.250;2023-04-19T11:48:31;13.70;92.70
67273;DHT22;54190;49.770;9.250;2023-04-19T11:50:58;13.80;94.00
67273;DHT22;54190;49.770;9.250;2023-04-19T11:53:25;14.10;93.70
67273;DHT22;54190;49.770;9.250;2023-04-19T11:55:56;14.30;91.60
67273;DHT22;54190;49.770;9.250;2023-04-19T11:58:36;14.40;91.70
67273;DHT22;54190;49.770;9.250;2023-04-19T12:01:09;14.50;89.00
67273;DHT22;54190;49.770;9.250;2023-04-19T12:03:40;14.40;81.10
67273;DHT22;54190;49.770;9.250;2023-04-19T12:06:11;14.40;83.00
67273;DHT22;54190;49.770;9.250;2023-04-19T12:08:45;14.50;90.00
67273;DHT22;54190;49.770;9.250;2023-04-19T12:11:12;14.60;88.10
67273;DHT22;54190;49.770;9.250;2023-04-19T12:13:39;14.20;81.50
67273;DHT22;54190;49.770;9.250;2023-04-19T12:16:10;13.90;81.70
67273;DHT22;54190;49.770;9.250;2023-04-19T12:18:48;13.90;80.40
67273;DHT22;54190;49.770;9.250;2023-04-19T12:21:28;14.10;85.80
67273;DHT22;54190;49.770;9.250;2023-04-19T12:23:56;14.50;70.30
67273;DHT22;54190;49.770;9.250;2023-04-19T12:26:23;14.90;74.90
67273;DHT22;54190;49.770;9.250;2023-04-19T12:28:49;15.30;76.70
67273;DHT22;54190;49.770;9.250;2023-04-19T12:31:14;15.50;67.20
67273;DHT22;54190;49.770;9.250;2023-04-19T12:33:41;15.60;64.10
67273;DHT22;54190;49.770;9.250;2023-04-19T12:36:06;15.70;66.90
67273;DHT22;54190;49.770;9.250;2023-04-19T12:38:32;15.60;61.40
67273;DHT22;54190;49.770;9.250;2023-04-19T12:40:58;15.70;64.20
67273;DHT22;54190;49.770;9.250;2023-04-19T12:43:23;15.90;61.80
67273;DHT22;54190;49.770;9.250;2023-04-19T12:45:49;16.10;60.50
67273;DHT22;54190;49.770;9.250;2023-04-19T12:48:14;16.00;65.50
67273;DHT22;54190;49.770;9.250;2023-04-19T12:50:40;16.00;59.90
67273;DHT22;54190;49.770;9.250;2023-04-19T12:53:06;15.70;54.40
67273;DHT22;54190;49.770;9.250;2023-04-19T12:55:32;15.10;56.00
67273;DHT22;54190;49.770;9.250;2023-04-19T12:57:58;14.70;58.90
67273;DHT22;54190;49.770;9.250;2023-04-19T13:00:23;14.60;57.80
67273;DHT22;54190;49.770;9.250;2023-04-19T13:02:49;14.70;63.60
67273;DHT22;54190;49.770;9.250;2023-04-19T13:05:15;15.00;63.80
67273;DHT22;54190;49.770;9.250;2023-04-19T13:07:40;15.30;65.50
67273;DHT22;54190;49.770;9.250;2023-04-19T13:10:06;15.60;64.80
67273;DHT22;54190;49.770;9.250;2023-04-19T13:12:32;15.90;57.00
67273;DHT22;54190;49.770;9.250;2023-04-19T13:14:58;15.80;56.60
67273;DHT22;54190;49.770;9.250;2023-04-19T13:17:23;15.70;55.80
67273;DHT22;54190;49.770;9.250;2023-04-19T13:19:49;15.40;51.20
67273;DHT22;54190;49.770;9.250;2023-04-19T13:22:15;15.10;53.80
67273;DHT22;54190;49.770;9.250;2023-04-19T13:24:41;15.00;51.80
67273;DHT22;54190;49.770;9.250;2023-04-19T13:27:06;15.00;52.50
67273;DHT22;54190;49.770;9.250;2023-04-19T13:29:32;15.00;50.40
67273;DHT22;54190;49.770;9.250;2023-04-19T13:31:58;15.10;51.50
67273;DHT22;54190;49.770;9.250;2023-04-19T13:34:23;15.10;51.60
67273;DHT22;54190;49.770;9.250;2023-04-19T13:36:49;15.10;52.10
67273;DHT22;54190;49.770;9.250;2023-04-19T13:39:15;15.20;53.00
67273;DHT22;54190;49.770;9.250;2023-04-19T13:41:41;15.30;50.20
67273;DHT22;54190;49.770;9.250;2023-04-19T13:44:07;15.30;50.40
67273;DHT22;54190;49.770;9.250;2023-04-19T13:46:32;14.90;47.90
67273;DHT22;54190;49.770;9.250;2023-04-19T13:48:58;14.20;46.80
67273;DHT22;54190;49.770;9.250;2023-04-19T13:51:25;13.80;46.30
67273;DHT22;54190;49.770;9.250;2023-04-19T13:53:51;13.60;46.80
67273;DHT22;54190;49.770;9.250;2023-04-19T13:56:17;13.60;51.60
67273;DHT22;54190;49.770;9.250;2023-04-19T13:58:43;13.70;49.30
67273;DHT22;54190;49.770;9.250;2023-04-19T14:01:09;13.70;45.30
67273;DHT22;54190;49.770;9.250;2023-04-19T14:03:34;13.70;46.00
67273;DHT22;54190;49.770;9.250;2023-04-19T14:06:00;13.90;43.10
67273;DHT22;54190;49.770;9.250;2023-04-19T14:08:26;14.10;47.10
67273;DHT22;54190;49.770;9.250;2023-04-19T14:10:51;14.30;42.00
67273;DHT22;54190;49.770;9.250;2023-04-19T14:13:17;14.10;40.10
67273;DHT22;54190;49.770;9.250;2023-04-19T14:15:43;13.90;41.10
67273;DHT22;54190;49.770;9.250;2023-04-19T14:18:08;13.70;39.70
67273;DHT22;54190;49.770;9.250;2023-04-19T14:20:34;13.40;35.80
67273;DHT22;54190;49.770;9.250;2023-04-19T14:23:00;13.20;37.20
67273;DHT22;54190;49.770;9.250;2023-04-19T14:25:26;13.20;41.30
67273;DHT22;54190;49.770;9.250;2023-04-19T14:27:52;13.20;40.70
67273;DHT22;54190;49.770;9.250;2023-04-19T14:30:19;13.40;43.40
67273;DHT22;54190;49.770;9.250;2023-04-19T14:32:45;13.70;43.60
67273;DHT22;54190;49.770;9.250;2023-04-19T14:35:11;14.10;46.10
67273;DHT22;54190;49.770;9.250;2023-04-19T14:37:36;14.30;42.20
67273;DHT22;54190;49.770;9.250;2023-04-19T14:40:03;14.30;43.00
67273;DHT22;54190;49.770;9.250;2023-04-19T14:42:29;14.40;44.60
67273;DHT22;54190;49.770;9.250;2023-04-19T14:44:56;14.50;40.90
67273;DHT22;54190;49.770;9.250;2023-04-19T14:47:21;14.50;41.10
67273;DHT22;54190;49.770;9.250;2023-04-19T14:49:47;14.40;37.70
67273;DHT22;54190;49.770;9.250;2023-04-19T14:52:13;14.30;38.10
67273;DHT22;54190;49.770;9.250;2023-04-19T14:54:38;14.30;38.10
67273;DHT22;54190;49.770;9.250;2023-04-19T14:57:04;14.30;40.90
67273;DHT22;54190;49.770;9.250;2023-04-19T14:59:30;14.40;41.60
67273;DHT22;54190;49.770;9.250;2023-04-19T15:01:55;14.40;40.30
67273;DHT22;54190;49.770;9.250;2023-04-19T15:04:21;14.40;40.70
67273;DHT22;54190;49.770;9.250;2023-04-19T15:06:47;14.30;41.70
67273;DHT22;54190;49.770;9.250;2023-04-19T15:09:12;14.30;40.80
67273;DHT22;54190;49.770;9.250;2023-04-19T15:11:38;14.20;42.10
67273;DHT22;54190;49.770;9.250;2023-04-19T15:14:03;14.30;42.80
67273;DHT22;54190;49.770;9.250;2023-04-19T15:16:29;14.00;42.80
67273;DHT22;54190;49.770;9.250;2023-04-19T15:18:55;13.70;41.90
67273;DHT22;54190;49.770;9.250;2023-04-19T15:21:21;13.60;42.30
67273;DHT22;54190;49.770;9.250;2023-04-19T15:23:47;13.70;43.80
67273;DHT22;54190;49.770;9.250;2023-04-19T15:26:14;13.80;40.50
67273;DHT22;54190;49.770;9.250;2023-04-19T15:28:39;13.60;40.70
67273;DHT22;54190;49.770;9.250;2023-04-19T15:31:06;13.70;42.90
67273;DHT22;54190;49.770;9.250;2023-04-19T15:33:33;13.70;42.90
67273;DHT22;54190;49.770;9.250;2023-04-19T15:35:59;13.70;42.40
67273;DHT22;54190;49.770;9.250;2023-04-19T15:38:27;14.00;44.10
67273;DHT22;54190;49.770;9.250;2023-04-19T15:40:55;14.30;43.30
67273;DHT22;54190;49.770;9.250;2023-04-19T15:43:21;14.30;44.60
67273;DHT22;54190;49.770;9.250;2023-04-19T15:45:47;14.20;41.50
67273;DHT22;54190;49.770;9.250;2023-04-19T15:48:13;14.20;44.40
67273;DHT22;54190;49.770;9.250;2023-04-19T15:50:39;13.80;41.50
67273;DHT22;54190;49.770;9.250;2023-04-19T15:53:06;13.60;42.20
67273;DHT22;54190;49.770;9.250;2023-04-19T15:55:32;13.50;42.30
67273;DHT22;54190;49.770;9.250;2023-04-19T15:57:59;13.30;42.40